Time;durP1;ratioP1;P1;durP2;ratioP2;P2;SDS_P1;SDS_P2;PMS_P1;PMS_P2;Temp;Humidity;BMP_temperature;BMP_pressure;BME280_temperature;BME280_humidity;BME280_pressure;Samples;Min_cycle;Max_cycle;Signal;HPM_P1;HPM_P2
2023/03/17 00:00:45;;;;;;;3.20;1.45;;;9.80;99.90;;;-144.05;41.13;56927.41;5012085;28;20018;-76
2023/03/17 00:03:25;;;;;;;5.88;1.95;;;10.00;99.90;;;-144.05;40.74;56914.69;5012602;28;20033;-75
2023/03/17 00:05:55;;;;;;;3.20;1.10;;;9.90;99.90;;;-144.05;40.75;56927.41;5012371;28;20025;-77
2023/03/17 00:08:30;;;;;;;5.40;1.83;;;9.90;99.90;;;-144.05;41.00;56933.78;5011925;28;20026;-77
2023/03/17 00:10:57;;;;;;;1.83;1.40;;;9.90;99.90;;;-144.05;40.69;56912.56;5011843;28;20104;-75
2023/03/17 00:13:22;;;;;;;3.40;1.52;;;10.00;99.90;;;-144.05;40.46;56901.94;5012121;28;20033;-76
2023/03/17 00:16:02;;;;;;;2.78;1.70;;;10.00;99.90;;;-144.05;40.85;56914.69;5012010;28;20077;-77
2023/03/17 00:18:34;;;;;;;3.90;1.65;;;10.00;99.90;;;-144.05;40.61;56927.41;5011292;28;20105;-75
2023/03/17 00:21:00;;;;;;;3.42;1.50;;;10.00;99.90;;;-144.05;40.30;56929.53;5011709;28;20033;-76
2023/03/17 00:23:26;;;;;;;4.65;1.80;;;10.10;99.90;;;-144.05;40.50;56923.19;5011853;28;20516;-77
2023/03/17 00:25:53;;;;;;;3.67;1.90;;;10.10;99.90;;;-144.05;40.52;56912.56;5011425;28;20038;-77
2023/03/17 00:28:26;;;;;;;4.25;1.88;;;10.10;99.90;;;-144.05;40.33;56927.41;5026040;28;20049;-76
2023/03/17 00:31:00;;;;;;;2.95;1.98;;;10.10;99.90;;;-144.05;40.25;56942.28;5011504;28;20076;-77
2023/03/17 00:33:33;;;;;;;4.45;1.60;;;10.10;99.90;;;-144.05;40.13;56912.56;5011237;28;20026;-76
2023/03/17 00:36:00;;;;;;;5.85;1.80;;;10.10;99.90;;;-144.05;40.31;56929.53;5011426;28;20022;-77
2023/03/17 00:38:26;;;;;;;2.95;1.85;;;10.10;99.90;;;-144.05;40.08;56921.06;5010883;28;20030;-77
2023/03/17 00:40:53;;;;;;;4.50;1.80;;;10.10;99.90;;;-144.05;40.07;56908.31;5010258;28;20034;-78
2023/03/17 00:43:18;;;;;;;2.10;1.50;;;10.00;99.90;;;-144.05;40.08;56929.53;5013996;28;20392;-77
2023/03/17 00:45:45;;;;;;;4.78;1.92;;;10.00;99.90;;;-144.05;40.27;56955.03;5014722;28;20029;-75
2023/03/17 00:48:20;;;;;;;3.00;1.50;;;10.00;99.90;;;-144.05;40.31;56940.16;5014546;28;20056;-77
2023/03/17 00:50:49;;;;;;;2.55;1.80;;;10.00;99.90;;;-144.05;40.45;56933.78;5013632;28;20466;-78
2023/03/17 00:53:20;;;;;;;4.65;1.55;;;10.00;99.90;;;-144.05;40.23;56912.56;5013822;28;20045;-76
2023/03/17 00:55:47;;;;;;;4.80;2.08;;;10.00;99.90;;;-144.05;40.60;56946.53;5014320;28;20057;-76
2023/03/17 00:58:27;;;;;;;3.08;1.67;;;9.90;99.90;;;-144.05;40.34;56933.78;5014413;28;20026;-75
2023/03/17 01:00:54;;;;;;;2.97;1.83;;;9.90;99.90;;;-144.05;40.11;56921.06;5014355;28;20418;-76
2023/03/17 01:03:22;;;;;;;3.75;1.50;;;10.00;99.90;;;-144.05;40.01;56914.69;5014322;28;20448;-76
2023/03/17 01:05:51;;;;;;;3.10;1.40;;;9.90;99.90;;;-144.05;39.99;56914.69;5014330;28;20105;-75
2023/03/17 01:08:21;;;;;;;2.13;1.60;;;9.80;99.90;;;-144.05;40.12;56918.94;5012528;28;20397;-75
2023/03/17 01:10:47;;;;;;;2.88;1.40;;;9.70;99.90;;;-144.05;40.20;56914.69;5014130;28;20543;-75
2023/03/17 01:13:14;;;;;;;1.65;1.30;;;9.60;99.90;;;-144.05;40.51;56912.56;5016689;28;20022;-76
2023/03/17 01:15:46;;;;;;;3.40;1.67;;;9.50;99.90;;;-144.05;40.68;56933.78;5018336;28;20065;-78
2023/03/17 01:18:16;;;;;;;7.15;1.80;;;9.40;99.90;;;-144.05;40.34;56927.41;5016713;28;20026;-77
2023/03/17 01:20:43;;;;;;;2.70;1.45;;;9.40;99.90;;;-144.05;40.54;56925.28;5016094;28;20045;-77
2023/03/17 01:23:11;;;;;;;3.72;1.73;;;9.40;99.90;;;-144.05;40.57;56912.56;5014218;28;20022;-77
2023/03/17 01:25:40;;;;;;;3.25;1.35;;;9.40;99.90;;;-144.05;40.46;56942.28;5014553;28;20040;-77
2023/03/17 01:28:09;;;;;;;2.70;1.40;;;9.40;99.90;;;-144.05;40.69;56921.06;5014079;28;20477;-77
2023/03/17 01:30:39;;;;;;;2.67;1.60;;;9.40;99.90;;;-144.05;40.98;56933.78;5013888;28;20056;-76
2023/03/17 01:33:11;;;;;;;2.60;1.50;;;9.30;99.90;;;-144.05;40.88;56901.94;5013867;28;20092;-76
2023/03/17 01:35:40;;;;;;;3.28;1.92;;;9.40;99.90;;;-144.05;41.21;56931.66;5014296;28;20029;-77
2023/03/17 01:38:07;;;;;;;3.85;1.77;;;9.40;99.90;;;-144.05;40.87;56927.41;5031531;28;20026;-78
2023/03/17 01:40:48;;;;;;;5.55;1.48;;;9.40;99.90;;;-144.05;41.14;56908.31;5014065;28;20030;-76
2023/03/17 01:43:29;;;;;;;3.05;1.50;;;9.50;99.90;;;-144.05;40.84;56923.19;5013719;28;20037;-77
2023/03/17 01:46:32;;;;;;;4.78;1.40;;;9.40;99.90;;;-144.05;40.89;56904.06;5013772;28;20421;-77
2023/03/17 01:49:08;;;;;;;3.03;1.65;;;9.40;99.90;;;-144.05;40.89;56938.03;5013498;28;20025;-78
2023/03/17 01:51:52;;;;;;;3.28;1.50;;;9.30;99.90;;;-144.05;41.05;56933.78;5013999;28;20152;-77
2023/03/17 01:55:01;;;;;;;2.05;1.20;;;9.30;99.90;;;-144.05;40.92;56916.81;5013780;28;20026;-78
2023/03/17 01:57:49;;;;;;;3.60;2.00;;;9.30;99.90;;;-144.05;41.18;56904.06;5013080;28;20045;-77
2023/03/17 02:00:22;;;;;;;8.13;1.67;;;9.30;99.90;;;-144.05;41.35;56912.56;5013373;28;20022;-78
2023/03/17 02:02:55;;;;;;;3.60;1.67;;;9.30;99.90;;;-144.05;41.46;56921.06;5011958;28;20026;-76
2023/03/17 02:05:30;;;;;;;2.83;1.65;;;9.30;99.90;;;-144.05;41.45;56918.94;5013851;28;20041;-76
2023/03/17 02:07:56;;;;;;;3.03;1.60;;;9.30;99.90;;;-144.05;41.13;56916.81;5014170;28;20115;-78
2023/03/17 02:10:27;;;;;;;2.83;1.50;;;9.30;99.90;;;-144.05;40.96;56927.41;5012504;28;20033;-78
2023/03/17 02:13:01;;;;;;;2.20;1.38;;;9.10;99.90;;;-144.05;41.24;56910.44;5013378;28;20108;-76
2023/03/17 02:16:00;;;;;;;3.33;1.48;;;9.10;99.90;;;-144.05;41.38;56914.69;5013288;28;20173;-77
2023/03/17 02:18:26;;;;;;;8.25;1.90;;;9.10;99.90;;;-144.05;41.21;56957.16;4996377;28;20041;-77
2023/03/17 02:21:48;;;;;;;4.10;1.70;;;9.10;99.90;;;-144.05;41.21;56925.28;5013465;28;20393;-77
2023/03/17 02:24:36;;;;;;;3.35;1.63;;;9.20;99.90;;;-144.05;40.92;56918.94;5013222;28;20047;-77
2023/03/17 02:27:15;;;;;;;4.35;1.58;;;9.20;99.90;;;-144.05;41.19;56925.28;5012585;28;20041;-75
2023/03/17 02:29:45;;;;;;;2.53;1.35;;;9.30;99.90;;;-144.05;41.10;56910.44;5011785;28;20030;-77
2023/03/17 02:32:14;;;;;;;3.45;1.58;;;9.30;99.90;;;-144.05;41.22;56908.31;5013720;28;20431;-76
2023/03/17 02:34:40;;;;;;;2.42;1.55;;;9.30;99.90;;;-144.05;40.72;56921.06;5012828;28;20065;-76
2023/03/17 02:37:07;;;;;;;3.20;1.58;;;9.50;99.90;;;-144.05;40.46;56933.78;5012902;28;20386;-76
2023/03/17 02:39:33;;;;;;;2.92;1.40;;;9.60;99.90;;;-144.05;39.97;56916.81;5012607;28;20026;-76
2023/03/17 02:42:00;;;;;;;4.18;1.73;;;9.60;99.90;;;-144.05;40.46;56944.41;5012795;28;20029;-77
2023/03/17 02:44:26;;;;;;;4.82;1.95;;;9.60;99.90;;;-144.05;40.27;56906.19;5013555;28;20034;-77
2023/03/17 02:46:52;;;;;;;2.28;1.67;;;9.50;99.90;;;-144.05;40.37;56921.06;5013045;28;20029;-77
2023/03/17 02:49:19;;;;;;;5.47;2.10;;;9.60;99.90;;;-144.05;40.23;56933.78;5012512;28;20045;-75
2023/03/17 02:51:45;;;;;;;2.67;1.48;;;9.60;99.90;;;-144.05;40.05;56929.53;5012624;28;20036;-77
2023/03/17 02:54:11;;;;;;;4.13;1.67;;;9.60;99.90;;;-144.05;40.01;56912.56;5027298;28;20416;-76
2023/03/17 02:56:37;;;;;;;3.05;1.55;;;9.70;99.90;;;-144.05;40.01;56914.69;5012503;28;20045;-77
2023/03/17 02:59:04;;;;;;;1.95;1.50;;;9.50;99.90;;;-144.05;39.93;56901.94;5012567;28;20033;-77
2023/03/17 03:01:30;;;;;;;3.45;1.92;;;9.40;99.90;;;-144.05;40.18;56914.69;5011021;28;20029;-79
2023/03/17 03:03:57;;;;;;;3.03;1.48;;;9.40;99.90;;;-144.05;40.18;56935.91;5012104;28;20037;-77
2023/03/17 03:06:23;;;;;;;3.38;1.73;;;9.40;99.90;;;-144.05;40.28;56925.28;5012435;28;20037;-78
2023/03/17 03:08:50;;;;;;;4.05;1.80;;;9.30;99.90;;;-144.05;40.37;56918.94;5012862;28;20034;-78
2023/03/17 03:11:17;;;;;;;3.05;1.70;;;9.30;99.90;;;-144.05;40.64;56912.56;5011385;28;20038;-78
2023/03/17 03:13:43;;;;;;;3.42;1.70;;;9.30;99.90;;;-144.05;40.81;56938.03;5013173;28;20034;-78
2023/03/17 03:16:09;;;;;;;5.40;1.63;;;9.20;99.90;;;-144.05;40.75;56912.56;5011333;28;20053;-78
2023/03/17 03:18:36;;;;;;;5.82;1.92;;;9.20;99.90;;;-144.05;40.87;56912.56;5010797;28;20128;-76
2023/03/17 03:21:04;;;;;;;5.10;1.92;;;9.10;99.90;;;-144.05;40.71;56912.56;5012697;28;20022;-78
2023/03/17 03:23:30;;;;;;;2.90;1.83;;;9.00;99.90;;;-144.05;40.89;56895.56;5027587;28;20448;-77
2023/03/17 03:25:56;;;;;;;3.22;1.63;;;8.80;99.90;;;-144.05;40.84;56925.28;5011612;28;20053;-76
2023/03/17 03:28:23;;;;;;;4.22;1.80;;;8.80;99.90;;;-144.05;41.38;56938.03;5011361;28;20476;-76
2023/03/17 03:30:49;;;;;;;4.40;1.70;;;8.50;99.90;;;-144.05;41.91;56931.66;5012396;28;20125;-78
2023/03/17 03:33:16;;;;;;;2.70;1.50;;;8.40;99.90;;;-144.05;42.81;56935.91;5011745;28;20464;-76
2023/03/17 03:35:43;;;;;;;3.30;1.83;;;8.50;99.90;;;-144.05;42.58;56944.41;5012205;28;20104;-78
2023/03/17 03:38:11;;;;;;;4.65;1.70;;;8.60;99.90;;;-144.05;41.86;56927.41;5012415;28;20030;-77
2023/03/17 03:40:38;;;;;;;3.28;1.77;;;8.70;99.90;;;-144.05;42.24;56910.44;5012224;28;20092;-76
2023/03/17 03:43:05;;;;;;;3.45;1.70;;;8.80;99.90;;;-144.05;41.97;56931.66;5011483;28;20108;-76
2023/03/17 03:45:32;;;;;;;2.58;1.35;;;8.70;99.90;;;-144.05;41.99;56912.56;5011286;28;20504;-76
2023/03/17 03:47:58;;;;;;;4.53;1.67;;;8.70;99.90;;;-144.05;41.85;56927.41;5012395;28;20037;-77
2023/03/17 03:50:24;;;;;;;3.70;1.98;;;8.60;99.90;;;-144.05;42.03;56921.06;5013142;28;20025;-76
2023/03/17 03:52:50;;;;;;;3.30;2.03;;;8.60;99.90;;;-144.05;42.06;56929.53;5012279;28;20123;-76
2023/03/17 03:55:16;;;;;;;2.72;1.23;;;8.70;99.90;;;-144.05;41.69;56912.56;5011632;28;20086;-75
2023/03/17 03:57:42;;;;;;;4.43;1.67;;;8.80;99.90;;;-144.05;41.62;56938.03;5010173;28;20423;-78
2023/03/17 04:00:12;;;;;;;3.22;1.75;;;8.70;99.90;;;-144.05;41.49;56933.78;5009719;28;20030;-76
2023/03/17 04:02:40;;;;;;;4.40;1.50;;;8.70;99.90;;;-144.05;41.42;56927.41;5011388;28;20018;-76
2023/03/17 04:05:08;;;;;;;2.28;1.30;;;8.70;99.90;;;-144.05;41.45;56918.94;5011628;28;20290;-78
2023/03/17 04:07:36;;;;;;;5.05;1.95;;;8.70;99.90;;;-144.05;41.62;56918.94;5010396;28;20029;-77
2023/03/17 04:10:03;;;;;;;2.63;1.50;;;8.70;99.90;;;-144.05;41.48;56942.28;5011634;28;20045;-76
2023/03/17 04:12:29;;;;;;;1.98;1.45;;;8.60;99.90;;;-144.05;42.00;56912.56;5010207;28;20034;-77
2023/03/17 04:14:55;;;;;;;4.63;2.40;;;8.60;99.90;;;-144.05;41.96;56925.28;5026586;28;20030;-75
2023/03/17 04:17:21;;;;;;;2.65;1.35;;;8.60;99.90;;;-144.05;41.57;56935.91;5013371;28;20044;-77
2023/03/17 04:19:48;;;;;;;3.17;1.55;;;8.70;99.90;;;-144.05;41.82;56921.06;5016654;28;20033;-76
2023/03/17 04:22:13;;;;;;;4.28;1.65;;;8.80;99.90;;;-144.05;41.72;56927.41;5014215;28;20029;-76
2023/03/17 04:24:39;;;;;;;2.60;1.38;;;8.80;99.90;;;-144.05;41.27;56895.56;5016658;28;20034;-78
2023/03/17 04:27:06;;;;;;;3.05;1.70;;;8.80;99.90;;;-144.05;41.66;56918.94;5016247;28;20038;-78
2023/03/17 04:29:32;;;;;;;3.03;1.58;;;8.80;99.90;;;-144.05;41.48;56921.06;5015799;28;20237;-78
2023/03/17 04:31:58;;;;;;;3.35;1.42;;;8.70;99.90;;;-144.05;41.13;56912.56;5015878;28;20034;-77
2023/03/17 04:34:25;;;;;;;4.07;1.55;;;8.70;99.90;;;-144.05;41.23;56942.28;5015616;28;20625;-75
2023/03/17 04:36:51;;;;;;;2.92;1.30;;;8.80;99.90;;;-144.05;40.90;56899.81;5015838;28;20018;-78
2023/03/17 04:39:17;;;;;;;4.38;1.90;;;8.60;99.90;;;-144.05;41.22;56929.53;5015320;28;20111;-75
2023/03/17 04:41:43;;;;;;;2.92;1.65;;;8.50;99.90;;;-144.05;41.71;56938.03;5015714;28;20026;-79
2023/03/17 04:44:08;;;;;;;2.75;1.40;;;8.50;99.90;;;-144.05;41.40;56916.81;5015783;28;20177;-76
2023/03/17 04:46:34;;;;;;;2.80;1.58;;;8.40;99.90;;;-144.05;41.56;56923.19;5015397;28;20108;-75
2023/03/17 04:49:01;;;;;;;2.78;1.70;;;8.30;99.90;;;-144.05;41.61;56908.31;5015374;28;20033;-77
2023/03/17 04:51:27;;;;;;;2.60;1.48;;;8.20;99.90;;;-144.05;42.08;56912.56;5015840;28;20264;-77
2023/03/17 04:53:53;;;;;;;6.00;1.70;;;8.10;99.90;;;-144.05;41.95;56948.66;5015373;28;20048;-77
2023/03/17 04:56:19;;;;;;;2.35;1.30;;;8.10;99.90;;;-144.05;41.56;56940.16;5015081;28;20396;-79
2023/03/17 04:58:46;;;;;;;4.05;1.70;;;8.20;99.90;;;-144.05;41.83;56918.94;5014784;28;20030;-78
2023/03/17 05:01:11;;;;;;;4.43;1.52;;;8.30;99.90;;;-144.05;41.36;56923.19;5015511;28;20088;-74
2023/03/17 05:03:37;;;;;;;3.38;1.50;;;8.30;99.90;;;-144.05;41.27;56916.81;5015686;28;20045;-76
2023/03/17 05:06:05;;;;;;;2.05;1.35;;;8.30;99.90;;;-144.05;41.24;56948.66;5015150;28;20037;-77
2023/03/17 05:08:31;;;;;;;1.70;1.25;;;8.40;99.90;;;-144.05;41.12;56927.41;5014033;28;20105;-76
2023/03/17 05:10:58;;;;;;;4.40;1.60;;;8.40;99.90;;;-144.05;41.03;56916.81;5015136;28;20105;-77
2023/03/17 05:13:26;;;;;;;2.03;1.35;;;8.50;99.90;;;-144.05;41.47;56912.56;5014819;28;20328;-77
2023/03/17 05:15:55;;;;;;;2.08;1.30;;;8.50;99.90;;;-144.05;41.29;56933.78;5014212;28;20112;-77
2023/03/17 05:18:24;;;;;;;2.55;1.42;;;8.60;99.90;;;-144.05;41.23;56910.44;5016563;28;20054;-77
2023/03/17 05:20:51;;;;;;;6.88;1.40;;;8.70;99.90;;;-144.05;41.08;56914.69;5015108;28;20088;-75
2023/03/17 05:23:17;;;;;;;4.47;1.65;;;8.70;99.90;;;-144.05;40.74;56908.31;5014730;28;20120;-76
2023/03/17 05:25:43;;;;;;;2.15;1.30;;;8.90;99.90;;;-144.05;40.74;56929.53;5014689;28;20066;-77
2023/03/17 05:28:09;;;;;;;6.60;1.95;;;8.90;99.90;;;-144.05;40.88;56929.53;5014654;28;20105;-76
2023/03/17 05:30:35;;;;;;;2.80;1.45;;;8.90;99.90;;;-144.05;40.87;56931.66;5030146;28;20034;-77
2023/03/17 05:33:01;;;;;;;2.72;1.40;;;8.90;99.90;;;-144.05;40.72;56908.31;5014938;28;20037;-79
2023/03/17 05:35:27;;;;;;;3.05;1.90;;;8.90;99.90;;;-144.05;40.92;56904.06;5013605;28;20060;-78
2023/03/17 05:37:53;;;;;;;2.42;1.25;;;8.80;99.90;;;-144.05;40.71;56895.56;5015592;28;20057;-78
2023/03/17 05:40:20;;;;;;;2.88;1.20;;;8.90;99.90;;;-144.05;40.76;56916.81;5016360;28;20033;-78
2023/03/17 05:42:45;;;;;;;4.68;1.50;;;8.90;99.90;;;-144.05;40.67;56929.53;5015656;28;20034;-77
2023/03/17 05:45:12;;;;;;;4.32;1.52;;;8.90;99.90;;;-144.05;40.71;56925.28;5015384;28;20105;-78
2023/03/17 05:47:37;;;;;;;4.88;1.52;;;8.90;99.90;;;-144.05;40.69;56933.78;5014954;28;20030;-78
2023/03/17 05:50:05;;;;;;;4.40;1.42;;;8.90;99.90;;;-144.05;40.62;56935.91;5015070;28;20103;-76
2023/03/17 05:52:31;;;;;;;4.03;1.40;;;8.90;99.90;;;-144.05;40.82;56925.28;5013714;28;20053;-77
2023/03/17 05:54:57;;;;;;;3.50;1.80;;;9.00;99.90;;;-144.05;41.09;56918.94;5014127;28;20438;-76
2023/03/17 05:57:23;;;;;;;4.50;1.42;;;9.00;99.90;;;-144.05;40.98;56921.06;5028627;28;20080;-77
2023/03/17 05:59:53;;;;;;;2.90;1.30;;;8.90;99.90;;;-144.05;40.95;56933.78;5013382;28;20029;-74
2023/03/17 06:02:19;;;;;;;3.75;1.52;;;8.90;99.90;;;-144.05;40.98;56908.31;5013776;28;20480;-76
2023/03/17 06:04:45;;;;;;;3.35;1.50;;;9.10;99.90;;;-144.05;40.89;56929.53;5013871;28;20034;-75
2023/03/17 06:07:12;;;;;;;4.22;1.50;;;9.00;99.90;;;-144.05;41.08;56912.56;5013289;28;20144;-78
2023/03/17 06:09:39;;;;;;;3.03;1.58;;;8.90;99.90;;;-144.05;41.10;56910.44;5014404;28;20125;-77
2023/03/17 06:12:05;;;;;;;5.50;1.70;;;8.90;99.90;;;-144.05;41.17;56923.19;5014002;28;20050;-79
2023/03/17 06:14:32;;;;;;;3.75;1.98;;;8.90;99.90;;;-144.05;41.12;56927.41;5013854;28;20092;-77
2023/03/17 06:16:58;;;;;;;9.10;1.98;;;8.90;99.90;;;-144.05;40.84;56904.06;5013971;28;20087;-76
2023/03/17 06:19:23;;;;;;;4.18;1.52;;;8.90;99.90;;;-144.05;41.20;56914.69;5013829;28;20101;-78
2023/03/17 06:21:49;;;;;;;5.72;1.80;;;9.00;99.90;;;-144.05;41.36;56925.28;5014159;28;20085;-76
2023/03/17 06:24:15;;;;;;;3.92;1.63;;;9.10;99.90;;;-144.05;41.24;56895.56;5012696;28;20026;-77
2023/03/17 06:26:42;;;;;;;5.38;1.80;;;9.10;99.90;;;-144.05;40.95;56931.66;5014885;28;20060;-78
2023/03/17 06:29:09;;;;;;;5.45;1.33;;;9.10;99.90;;;-144.05;41.53;56908.31;5015306;28;20030;-76
2023/03/17 06:31:35;;;;;;;4.80;1.70;;;9.20;99.90;;;-144.05;41.03;56904.06;5013625;28;20104;-76
2023/03/17 06:34:02;;;;;;;7.07;1.60;;;9.20;99.90;;;-144.05;40.72;56929.53;5012256;28;20477;-78
2023/03/17 06:36:31;;;;;;;2.70;1.52;;;9.20;99.90;;;-144.05;41.13;56927.41;5013437;28;20088;-76
2023/03/17 06:38:59;;;;;;;4.60;1.70;;;9.20;99.90;;;-144.05;40.77;56933.78;5013296;28;20385;-76
2023/03/17 06:41:26;;;;;;;4.95;1.73;;;9.40;99.90;;;-144.05;41.15;56921.06;5012243;28;20030;-77
2023/03/17 06:43:52;;;;;;;3.03;1.52;;;9.50;99.90;;;-144.05;40.64;56912.56;5028225;28;20090;-76
2023/03/17 06:46:18;;;;;;;3.42;1.67;;;9.60;99.90;;;-144.05;40.11;56910.44;5027404;28;20049;-77
2023/03/17 06:48:44;;;;;;;5.97;2.10;;;9.90;99.90;;;-144.05;39.93;56918.94;5020120;28;20030;-79
2023/03/17 06:51:10;;;;;;;3.83;1.83;;;10.00;99.90;;;-144.05;39.47;56912.56;5021639;28;20041;-77
2023/03/17 06:53:36;;;;;;;5.43;2.20;;;10.20;99.90;;;-144.05;39.53;56899.81;5019596;28;20032;-78
2023/03/17 06:56:03;;;;;;;3.40;1.98;;;10.30;99.90;;;-144.05;39.02;56897.69;5015635;28;20108;-78
2023/03/17 06:58:30;;;;;;;6.00;2.03;;;10.40;99.90;;;-144.05;39.51;56908.31;5041111;28;20029;-77
2023/03/17 07:00:57;;;;;;;6.28;1.73;;;10.50;99.90;;;-144.05;38.92;56882.81;5013889;28;20042;-77
2023/03/17 07:03:24;;;;;;;2.33;1.52;;;10.70;99.90;;;-144.05;38.77;56880.69;5013336;28;20026;-75
2023/03/17 07:05:52;;;;;;;10.85;1.90;;;10.70;99.90;;;-144.05;38.84;56925.28;5013380;28;20105;-77
2023/03/17 07:08:18;;;;;;;6.43;1.60;;;10.80;99.90;;;-144.05;38.17;56914.69;5013090;28;20034;-77
2023/03/17 07:10:47;;;;;;;2.67;1.38;;;11.00;99.90;;;-144.05;38.53;56887.06;5014974;28;20033;-78
2023/03/17 07:13:13;;;;;;;3.97;2.17;;;11.10;99.80;;;-144.05;38.35;56912.56;5015020;28;20135;-77
2023/03/17 07:15:39;;;;;;;3.10;1.90;;;11.20;99.70;;;-144.05;37.62;56901.94;5014177;28;20044;-78
2023/03/17 07:18:05;;;;;;;2.40;1.70;;;11.30;99.40;;;-144.05;37.49;56927.41;5014773;28;20030;-79
2023/03/17 07:20:32;;;;;;;4.13;1.90;;;11.40;98.90;;;-144.05;37.20;56901.94;5014806;28;20370;-78
2023/03/17 07:22:58;;;;;;;4.15;2.22;;;11.60;98.30;;;-144.05;37.25;56901.94;5013252;28;20026;-78
2023/03/17 07:25:24;;;;;;;7.70;1.50;;;11.70;97.90;;;-144.05;37.21;56887.06;5014722;28;20025;-81
2023/03/17 07:27:50;;;;;;;9.15;2.35;;;12.00;97.90;;;-144.05;36.78;56906.19;5014956;28;20457;-78
2023/03/17 07:30:18;;;;;;;4.05;2.10;;;12.10;97.50;;;-144.05;36.83;56891.31;5015333;28;20026;-77
2023/03/17 07:32:47;;;;;;;3.92;1.65;;;12.20;96.80;;;-144.05;36.80;56923.19;5014648;28;20030;-81
2023/03/17 07:35:14;;;;;;;3.85;1.70;;;12.40;96.80;;;-144.05;36.28;56878.56;5014640;28;20030;-79
2023/03/17 07:37:41;;;;;;;5.75;1.60;;;12.50;96.40;;;-144.05;35.80;56918.94;5013494;28;20033;-79
2023/03/17 07:40:09;;;;;;;3.35;1.80;;;12.80;96.50;;;-144.05;35.29;56893.44;5013435;28;20117;-80
2023/03/17 07:42:36;;;;;;;5.20;1.70;;;13.20;95.80;;;-144.05;35.16;56895.56;5013881;28;20417;-80
2023/03/17 07:45:04;;;;;;;2.92;1.80;;;13.40;94.90;;;-144.05;34.65;56878.56;5015799;28;20264;-80
2023/03/17 07:47:30;;;;;;;3.08;1.42;;;13.40;93.90;;;-144.05;34.89;56918.94;5015427;28;20057;-79
2023/03/17 07:49:56;;;;;;;7.68;1.85;;;13.40;94.20;;;-144.05;34.78;56891.31;5015511;28;20026;-81
2023/03/17 07:52:22;;;;;;;3.38;1.75;;;13.60;94.50;;;-144.05;34.25;56874.31;5014871;28;20041;-79
2023/03/17 07:54:50;;;;;;;6.65;2.10;;;13.70;93.30;;;-144.05;34.24;56906.19;5015913;28;20037;-79
2023/03/17 07:57:16;;;;;;;3.85;1.88;;;13.90;92.90;;;-144.05;33.88;56906.19;5014493;28;20053;-78
2023/03/17 07:59:42;;;;;;;4.28;1.67;;;14.00;92.40;;;-144.05;33.82;56882.81;5031044;28;20474;-77
2023/03/17 08:02:15;;;;;;;3.50;1.75;;;14.20;91.90;;;-144.05;33.59;56884.94;5012874;28;20058;-76
2023/03/17 08:04:43;;;;;;;5.25;2.25;;;14.40;91.50;;;-144.05;34.10;56906.19;5012942;28;20030;-78
2023/03/17 08:07:10;;;;;;;7.45;1.98;;;14.20;91.80;;;-144.05;33.83;56897.69;5011915;28;20033;-79
2023/03/17 08:09:36;;;;;;;4.80;2.08;;;14.10;91.00;;;-144.05;34.15;56912.56;5015732;28;20090;-79
2023/03/17 08:12:04;;;;;;;3.25;1.83;;;14.00;91.10;;;-144.05;34.39;56882.81;5014556;28;20442;-77
2023/03/17 08:14:29;;;;;;;3.78;1.75;;;14.00;91.40;;;-144.05;34.38;56887.06;5012741;28;20026;-78
2023/03/17 08:16:56;;;;;;;3.90;2.00;;;14.10;91.40;;;-144.05;34.22;56884.94;5011406;28;20037;-77
2023/03/17 08:19:23;;;;;;;2.55;1.75;;;14.00;91.00;;;-144.05;33.99;56910.44;5012078;28;20022;-78
2023/03/17 08:21:50;;;;;;;4.75;1.63;;;14.00;90.70;;;-144.05;34.27;56882.81;5013042;28;20473;-76
2023/03/17 08:24:17;;;;;;;3.88;1.70;;;14.10;91.10;;;-144.05;34.35;56891.31;5013138;28;20116;-77
2023/03/17 08:26:48;;;;;;;3.85;1.88;;;14.00;91.00;;;-144.05;34.32;56865.81;5012955;28;20393;-77
2023/03/17 08:29:14;;;;;;;3.72;1.38;;;14.00;91.30;;;-144.05;34.38;56895.56;5013114;28;20030;-78
2023/03/17 08:31:41;;;;;;;7.20;2.00;;;13.80;90.80;;;-144.05;35.11;56884.94;5013183;28;20030;-77
2023/03/17 08:34:07;;;;;;;3.65;1.60;;;13.70;91.50;;;-144.05;34.65;56884.94;5011610;28;20461;-78
2023/03/17 08:36:33;;;;;;;2.83;1.50;;;13.70;91.30;;;-144.05;34.99;56893.44;5011915;28;20037;-80
2023/03/17 08:38:59;;;;;;;3.45;1.65;;;13.80;92.20;;;-144.05;34.62;56887.06;5013957;28;20022;-79
2023/03/17 08:41:27;;;;;;;3.63;1.60;;;13.90;91.40;;;-144.05;34.72;56901.94;5015075;28;20049;-78
2023/03/17 08:43:54;;;;;;;4.38;1.75;;;14.00;91.80;;;-144.05;34.60;56891.31;5014878;28;20078;-79
2023/03/17 08:46:30;;;;;;;4.75;2.22;;;14.20;91.20;;;-144.05;34.71;56882.81;5014473;28;20434;-80
2023/03/17 08:48:59;;;;;;;3.08;1.60;;;14.50;91.80;;;-144.05;34.08;56912.56;5012760;28;20206;-79
2023/03/17 08:51:31;;;;;;;4.00;1.30;;;14.90;91.00;;;-144.05;33.74;56897.69;5013759;28;20068;-78
2023/03/17 08:53:58;;;;;;;3.53;1.40;;;15.00;90.40;;;-144.05;33.71;56897.69;5015555;28;20033;-81
2023/03/17 08:56:24;;;;;;;3.38;1.95;;;15.00;90.50;;;-144.05;34.00;56908.31;5016562;28;20049;-77
2023/03/17 08:58:50;;;;;;;4.38;1.75;;;14.80;89.30;;;-144.05;33.71;56912.56;5016137;28;20084;-77
2023/03/17 09:01:19;;;;;;;6.53;1.77;;;14.70;89.20;;;-144.05;33.81;56901.94;5015681;28;20358;-79
2023/03/17 09:03:47;;;;;;;2.97;1.63;;;14.70;90.10;;;-144.05;34.27;56908.31;5017286;28;20030;-80
2023/03/17 09:06:13;;;;;;;4.60;1.80;;;14.60;90.00;;;-144.05;34.36;56895.56;5018906;28;20029;-79
2023/03/17 09:08:46;;;;;;;6.78;1.77;;;14.50;90.00;;;-144.05;34.48;56872.19;5018119;28;20065;-78
2023/03/17 09:11:19;;;;;;;3.67;1.55;;;14.50;90.20;;;-144.05;34.35;56882.81;5016790;28;20030;-80
2023/03/17 09:13:46;;;;;;;4.03;1.77;;;14.60;90.10;;;-144.05;34.25;56882.81;5017198;28;20406;-77
2023/03/17 09:16:16;;;;;;;4.60;1.75;;;14.50;90.30;;;-144.05;34.90;56884.94;5018415;28;20484;-78
2023/03/17 09:18:45;;;;;;;4.63;1.92;;;14.50;90.50;;;-144.05;34.87;56887.06;5016010;28;20030;-81
2023/03/17 09:21:13;;;;;;;5.50;1.83;;;14.50;90.30;;;-144.05;34.72;56918.94;5018027;28;20375;-80
2023/03/17 09:23:40;;;;;;;4.10;1.73;;;14.40;90.00;;;-144.05;34.49;56876.44;5017534;28;20185;-73
2023/03/17 09:26:07;;;;;;;5.10;2.08;;;14.70;90.20;;;-144.05;33.94;56910.44;5016744;28;20034;-78
2023/03/17 09:28:33;;;;;;;3.08;1.70;;;14.70;88.10;;;-144.05;34.36;56908.31;5016311;28;20048;-77
2023/03/17 09:31:05;;;;;;;5.30;1.65;;;14.70;90.00;;;-144.05;34.32;56889.19;5018454;28;20041;-78
2023/03/17 09:33:31;;;;;;;5.38;1.80;;;14.70;89.70;;;-144.05;34.24;56901.94;5022782;28;20497;-77
2023/03/17 09:35:57;;;;;;;3.75;1.75;;;14.90;89.40;;;-144.05;34.15;56904.06;5017680;28;20482;-78
2023/03/17 09:38:26;;;;;;;6.28;1.90;;;15.00;89.40;;;-144.05;33.87;56882.81;5017862;28;20037;-77
2023/03/17 09:41:29;;;;;;;3.35;1.70;;;15.30;88.80;;;-144.05;33.40;56876.44;5017220;28;20030;-77
2023/03/17 09:45:06;;;;;;;5.65;1.90;;;15.40;86.20;;;-144.05;33.57;56887.06;5016162;28;20025;-76
2023/03/17 09:48:31;;;;;;;4.25;1.98;;;15.70;88.50;;;-144.05;32.75;56893.44;5015461;28;20516;-77
2023/03/17 09:51:07;;;;;;;5.15;1.58;;;16.00;85.20;;;-144.05;32.52;56876.44;5008673;28;20103;-79
2023/03/17 09:54:01;;;;;;;5.35;1.65;;;16.40;84.20;;;-144.05;32.65;56910.44;5016969;28;20026;-78
2023/03/17 09:56:32;;;;;;;3.38;1.95;;;16.90;87.10;;;-144.05;31.55;56925.28;5015253;28;20045;-78
2023/03/17 09:59:31;;;;;;;4.28;1.55;;;17.20;82.50;;;-144.05;31.55;56906.19;5013624;28;20029;-77
2023/03/17 10:01:57;;;;;;;2.33;1.40;;;17.20;81.40;;;-144.05;31.38;56901.94;5017748;28;20079;-79
2023/03/17 10:04:23;;;;;;;3.00;1.70;;;17.20;80.70;;;-144.05;31.67;56880.69;5016977;28;20099;-78
2023/03/17 10:06:53;;;;;;;3.63;1.77;;;17.30;80.50;;;-144.05;31.18;56884.94;5016362;28;20034;-77
2023/03/17 10:09:51;;;;;;;3.45;1.60;;;17.50;79.80;;;-144.05;31.39;56904.06;5016372;28;20067;-76
2023/03/17 10:12:58;;;;;;;4.57;1.58;;;17.40;79.40;;;-144.05;31.44;56887.06;5018431;28;20041;-80
2023/03/17 10:15:46;;;;;;;4.57;1.90;;;17.40;78.70;;;-144.05;31.84;56904.06;5018148;28;20030;-79
2023/03/17 10:18:17;;;;;;;3.65;1.73;;;17.20;79.40;;;-144.05;32.08;56906.19;5017377;28;20030;-77
2023/03/17 10:21:02;;;;;;;3.25;1.63;;;16.80;78.30;;;-144.05;32.62;56887.06;5016810;28;20028;-78